• Join FlightAware (Why Join?)
  • Login
  • US Flag 
Gobble Gobble! 
05:51AM EST


 

Airport Tracker/Info


-or-


 

Live Flight TrackerFlight Track Log ✈ FLG4208 ✈ 26-Apr-2013 ✈ KDTW - KAZO

Flight Track Log - Related Links

Times and Time Zones

All times are in EDT time to prevent confusion due to time zone crossing. See the FLG4208 flight status page for this flight to view local times or setup timezone preferences in your user account.

Time Position Orientation Groundspeed Altitude Reporting Facility
EDT Latitude Longitude Course Direction KTS MPH feet Rate Location/Type
11:04AM 42.2017 -83.3583 275° West 157 181 1,500  Level Cleveland Center
11:05AM 42.2003 -83.4058 268° West 200 230 3,500 1,380 Climbing Cleveland Center
11:06AM 42.2044 -83.4928 274° West 277 319 4,000 1,500 Climbing Cleveland Center
11:07AM 42.2176 -83.6478 275° West  Level FlightAware Approximate
11:07AM 42.2144 -83.5886 278° West 267 307 6,600  Level Cleveland Center
11:08AM 42.2242 -83.7476 275° West  Level FlightAware Approximate
11:08AM 42.2222 -83.6928 276° West 253 291 7,000  Level Cleveland Center
11:09AM 42.2308 -83.8475 275° West  Level FlightAware Approximate
11:09AM 42.2300 -83.7831 277° West 253 291 7,000  Level Cleveland Center
11:10AM 42.2372 -83.9474 275° West  Level FlightAware Approximate
11:11AM 42.2382 -83.9313 274° West  Level FlightAware Approximate
11:13AM 42.2633 -84.1956 270° West 299 344 9,900  Level Chicago Center
11:14AM 42.2625 -84.3081 269° West 300 345 9,900  Level Chicago Center
11:15AM 42.2603 -84.4206 269° West 300 345 9,900  Level Chicago Center
11:16AM 42.2589 -84.5333 269° West 301 346 9,900  Level Chicago Center
11:17AM 42.2561 -84.6467 268° West 303 349 9,900  Level Chicago Center
11:18AM 42.2500 -84.6025 270° West  Level FlightAware Approximate
11:18AM 42.2542 -84.7808 269° West 300 345 10,000  Level Chicago Center
11:19AM 42.2642 -84.8922 277° West 300 345 10,000 -420 Level Chicago Center
11:20AM 42.2833 -84.9947 284° West 286 329 9,200 -1,140 Descending Chicago Center
11:21AM 42.2992 -85.0869 283° West 263 303 7,700 -1,680 Descending Chicago Center
11:22AM 42.3164 -85.1761 285° West 251 289 5,800 -1,680 Descending Chicago Center
11:23AM 42.3336 -85.2667 284° West 248 285 4,300 -960 Descending Chicago Center
11:24AM 42.3397 -85.3708 275° West 236 272 3,900 -360 Descending Chicago Center
11:25AM 42.3381 -85.4475 268° West 214 246 3,600 -300 Descending Chicago Center